Arabia, CA

2:06 PM PDT on October 23, 2014 (GMT -0700)
Desert Resorts Regional | Change Station
CLOSE
Current Station
Airport
Location: Thermal,
Elevation: -115 ft
Nearby Weather Stations

Elev -115 ft 33.63 °N, 116.16 °W | Updated 14 minutes ago

Clear
Clear
94 °F
Feels Like 94 °F
N
8
Wind Variable Wind from SE

Today
High -- | Low -- °F
--% Chance of Precip.
Yesterday
High -- | Low -- °F
Precip. -- in
6:55 AM 6:01 PM
Waning Crescent, 0% visible
Pressure 29.88 in
Visibility 10.0 miles
Clouds Clear
Dew Point 48 °F
Humidity 21%
Rainfall 0.00 in
Snow Depth Not available.
UV 5 out of 12
Pollen 3.80 out of 12
Ozone Good
Flu Activity Sporadic
METAR KTRM 232052Z AUTO 14007KT 10SM CLR 34/09 A2987 RMK AO2 SLP118 T03440089 58025 TSNO

More Conditions Fewer Conditions

Pressure 29.88 in
Visibility 10.0 miles
Clouds Clear
Dew Point 48 °F
Humidity 21%
Rainfall 0.00 in
Snow Depth Not available.
UV 5 out of 12
Pollen 3.80 out of 12
Ozone Good
Flu Activity Sporadic
METAR KTRM 232052Z AUTO 14007KT 10SM CLR 34/09 A2987 RMK AO2 SLP118 T03440089 58025 TSNO

More Conditions Fewer Conditions

10-Day Weather Forecast

Almanac

Astronomy

Oct. 23, 2014 Rise Set
Actual Time 6:55 AM PDT 6:01 PM PDT
Civil Twilight 6:30 AM PDT 6:26 PM PDT
Nautical Twilight 6:01 AM PDT 6:55 PM PDT
Astronomical Twilight 5:32 AM PDT 7:24 PM PDT
Moon 6:40 AM PDT 6:05 PM PDT
Length of Visible Light 11h 56m
Length of Day
11h 05m
Tomorrow will be 1m 56s shorter.
Waning Crescent, 0% of the Moon is Illuminated
Today
Waning Crescent
Oct 23
New
Oct 30
First Quarter
Nov 6
Full
Nov 14
Last Quarter

Today's Extremes

State Highs State Lows

Community

WunderPhotos

Upload Photos

1,764,371 photos uploaded!

WunderBlogs® & News

By Dr. Jeff Masters
Director of Meteorology, Weather Underground
By Kari Strenfel
Meteorologist, Weather Underground
By Christopher C. Burt
Weather Historian, Weather Underground
October 23, 2014
October 23, 2014
October 23, 2014

Nearby

Air Quality

  Air Quality AQ Index Pollutant
Yesterday Moderate
OZONE
Yesterday Good
PM10
Current Good
OZONE
Friday Moderate
OZONE
Friday Good
PM10
Friday Good
CO
Friday Good
NO2

Snow Depth

Station Depth Elevation
Leavitt Meadows 0 in 7200 ft
Summit Meadow 1 in 9122 ft
Monitor Pass 0 in 8350 ft
Echo Peak 0 in 7800 ft
Rubicon #2 0 in 7500 ft

Earthquake Activity

City Distance Mag. Time & Date
Corona, California 88 miles 2.5 1:09 PM PDT
2014-10-23
Delta, Mexico 97 miles 2.5 8:53 PM PDT
2014-10-21
Alberto Oviedo Mota, Mexico 115 miles 2.7 4:13 PM PDT
2014-10-21
Alberto Oviedo Mota, Mexico 113 miles 3.3 3:57 PM PDT
2014-10-21
Minimum magnitude displayed is 2.5.

Coastal Water Temperatures

Place Temperature
No Stations Reporting

Nearby Weather Stations